Time;durP1;ratioP1;P1;durP2;ratioP2;P2;SDS_P1;SDS_P2;PMS_P1;PMS_P2;Temp;Humidity;BMP_temperature;BMP_pressure;BME280_temperature;BME280_humidity;BME280_pressure;Samples;Min_cycle;Max_cycle;Signal;HPM_P1;HPM_P2
2023/01/22 00:01:18;;;;;;;;;;;179.70;2252.80;;;;;;5023001;28;19970;-78
2023/01/22 00:03:44;;;;;;;;;;;179.50;2252.80;;;;;;5031043;28;19920;-79
2023/01/22 00:06:10;;;;;;;;;;;179.50;2252.80;;;;;;5017976;28;19909;-79
2023/01/22 00:08:36;;;;;;;;;;;179.50;2252.80;;;;;;5031235;28;19913;-79
2023/01/22 00:11:02;;;;;;;;;;;179.60;2252.80;;;;;;5033627;28;20374;-78
2023/01/22 00:13:27;;;;;;;;;;;179.50;2252.80;;;;;;5024203;28;19905;-79
2023/01/22 00:15:55;;;;;;;;;;;179.50;2252.80;;;;;;5020539;28;19905;-79
2023/01/22 00:18:21;;;;;;;;;;;179.40;2252.80;;;;;;5021475;28;19904;-79
2023/01/22 00:20:47;;;;;;;;;;;179.40;2252.80;;;;;;5020319;28;19916;-79
2023/01/22 00:23:13;;;;;;;;;;;179.50;2252.80;;;;;;5022418;28;19909;-79
2023/01/22 00:25:39;;;;;;;;;;;179.70;2252.80;;;;;;5021787;28;20003;-79
2023/01/22 00:28:04;;;;;;;;;;;179.70;2252.80;;;;;;5036405;28;20007;-79
2023/01/22 00:30:31;;;;;;;;;;;179.60;2252.80;;;;;;5026341;28;19921;-79
2023/01/22 00:32:56;;;;;;;;;;;179.50;2252.80;;;;;;5018957;28;19905;-79
2023/01/22 00:35:22;;;;;;;;;;;179.50;2252.80;;;;;;5018708;28;19912;-79
2023/01/22 00:37:48;;;;;;;;;;;179.60;2252.80;;;;;;5019265;28;19996;-78
2023/01/22 00:40:14;;;;;;;;;;;179.70;2252.80;;;;;;5018255;28;19905;-78
2023/01/22 00:42:40;;;;;;;;;;;179.60;2252.80;;;;;;5023504;28;19955;-79
2023/01/22 00:45:06;;;;;;;;;;;179.40;2252.80;;;;;;5021110;28;19905;-79
2023/01/22 00:47:31;;;;;;;;;;;179.50;2252.80;;;;;;5017103;28;19917;-78
2023/01/22 00:49:57;;;;;;;;;;;179.60;2252.80;;;;;;5014441;28;20470;-78
2023/01/22 00:52:22;;;;;;;;;;;179.50;2252.80;;;;;;5038209;28;19999;-79
2023/01/22 00:54:48;;;;;;;;;;;179.40;2252.80;;;;;;5022966;28;19909;-78
2023/01/22 00:57:13;;;;;;;;;;;179.60;2252.80;;;;;;5020416;28;19905;-79
2023/01/22 00:59:39;;;;;;;;;;;179.70;2252.80;;;;;;5004527;28;20282;-79
2023/01/22 01:02:05;;;;;;;;;;;179.70;2252.80;;;;;;5006525;28;19940;-79
2023/01/22 01:04:31;;;;;;;;;;;179.80;2252.80;;;;;;5001975;28;19963;-78
2023/01/22 01:06:56;;;;;;;;;;;179.80;2252.80;;;;;;5000092;28;19941;-79
2023/01/22 01:09:22;;;;;;;;;;;179.90;2252.80;;;;;;5021602;28;19931;-79
2023/01/22 01:11:48;;;;;;;;;;;179.90;2252.80;;;;;;5003906;28;19912;-79
2023/01/22 01:14:13;;;;;;;;;;;179.90;2252.80;;;;;;5003148;28;20275;-79
2023/01/22 01:16:40;;;;;;;;;;;179.90;2252.80;;;;;;5009355;28;20386;-78
2023/01/22 01:19:08;;;;;;;;;;;179.90;2252.80;;;;;;4999868;28;19972;-79
2023/01/22 01:21:35;;;;;;;;;;;179.90;2252.80;;;;;;5007843;28;19924;-79
2023/01/22 01:24:01;;;;;;;;;;;179.90;2252.80;;;;;;4998252;28;19909;-78
2023/01/22 01:26:27;;;;;;;;;;;179.80;2252.80;;;;;;5002604;28;19992;-79
2023/01/22 01:28:52;;;;;;;;;;;179.90;2252.80;;;;;;5003572;28;19991;-78
2023/01/22 01:31:19;;;;;;;;;;;179.80;2252.80;;;;;;5006521;28;19956;-79
2023/01/22 01:33:44;;;;;;;;;;;179.70;2252.80;;;;;;5001189;28;20434;-79
2023/01/22 01:36:14;;;;;;;;;;;179.60;2252.80;;;;;;5019854;28;19992;-78
2023/01/22 01:38:40;;;;;;;;;;;179.80;2252.80;;;;;;5016778;28;19909;-79
2023/01/22 01:41:06;;;;;;;;;;;179.80;2252.80;;;;;;5016605;28;19960;-79
2023/01/22 01:43:33;;;;;;;;;;;179.90;2252.80;;;;;;5006389;28;19912;-79
2023/01/22 01:46:00;;;;;;;;;;;179.90;2252.80;;;;;;4993052;28;20004;-79
2023/01/22 01:48:28;;;;;;;;;;;179.90;2252.80;;;;;;5022034;28;19996;-79
2023/01/22 01:51:03;;;;;;;;;;;179.70;2252.80;;;;;;5001119;28;19910;-79
2023/01/22 01:53:30;;;;;;;;;;;179.80;2252.80;;;;;;4989351;28;19910;-79
2023/01/22 01:55:57;;;;;;;;;;;179.90;2252.80;;;;;;5002977;28;19910;-79
2023/01/22 01:58:24;;;;;;;;;;;179.90;2252.80;;;;;;5007871;28;19925;-79
2023/01/22 02:00:52;;;;;;;;;;;179.90;2252.80;;;;;;5004111;28;19916;-79
2023/01/22 02:03:18;;;;;;;;;;;180.00;2252.80;;;;;;5007132;28;20283;-79
2023/01/22 02:05:44;;;;;;;;;;;180.00;2252.80;;;;;;5018822;28;19905;-78
2023/01/22 02:08:10;;;;;;;;;;;180.00;2252.80;;;;;;5002583;28;19924;-79
2023/01/22 02:10:36;;;;;;;;;;;180.00;2252.80;;;;;;5015813;28;19910;-79
2023/01/22 02:13:03;;;;;;;;;;;180.10;2252.80;;;;;;5008188;28;20370;-78
2023/01/22 02:15:29;;;;;;;;;;;180.00;2252.80;;;;;;5009182;28;19905;-79
2023/01/22 02:17:55;;;;;;;;;;;180.10;2252.80;;;;;;4996667;28;20352;-79
2023/01/22 02:20:20;;;;;;;;;;;180.10;2252.80;;;;;;4996357;28;20275;-78
2023/01/22 02:22:46;;;;;;;;;;;180.00;2252.80;;;;;;5007076;28;19916;-79
2023/01/22 02:25:11;;;;;;;;;;;179.90;2252.80;;;;;;4989874;28;19906;-79
2023/01/22 02:27:37;;;;;;;;;;;179.90;2252.80;;;;;;4987110;28;19913;-79
2023/01/22 02:30:03;;;;;;;;;;;179.90;2252.80;;;;;;4988902;28;19905;-79
2023/01/22 02:32:29;;;;;;;;;;;179.80;2252.80;;;;;;4984977;28;19906;-79
2023/01/22 02:34:55;;;;;;;;;;;179.90;2252.80;;;;;;4996326;28;19906;-79
2023/01/22 02:37:20;;;;;;;;;;;180.00;2252.80;;;;;;4996415;28;19905;-79
2023/01/22 02:39:46;;;;;;;;;;;180.10;2252.80;;;;;;4995861;28;19905;-79
2023/01/22 02:42:12;;;;;;;;;;;180.00;2252.80;;;;;;4996422;28;19905;-79
2023/01/22 02:44:38;;;;;;;;;;;179.90;2252.80;;;;;;4993765;28;20370;-79
2023/01/22 02:47:04;;;;;;;;;;;180.00;2252.80;;;;;;4977847;28;19914;-79
2023/01/22 02:49:29;;;;;;;;;;;180.10;2252.80;;;;;;4987052;28;20379;-79
2023/01/22 02:51:55;;;;;;;;;;;180.00;2252.80;;;;;;5013868;28;20007;-79
2023/01/22 02:54:20;;;;;;;;;;;180.10;2252.80;;;;;;4996722;28;19913;-78
2023/01/22 02:56:46;;;;;;;;;;;180.00;2252.80;;;;;;4996651;28;20352;-79
2023/01/22 02:59:11;;;;;;;;;;;180.00;2252.80;;;;;;4996050;28;19952;-79
2023/01/22 03:01:37;;;;;;;;;;;180.00;2252.80;;;;;;4996253;28;19945;-79
2023/01/22 03:04:09;;;;;;;;;;;180.00;2252.80;;;;;;4996211;28;19905;-79
2023/01/22 03:06:36;;;;;;;;;;;179.80;2252.80;;;;;;4991143;28;20343;-78
2023/01/22 03:09:01;;;;;;;;;;;179.90;2252.80;;;;;;5014226;28;19909;-78
2023/01/22 03:11:28;;;;;;;;;;;179.80;2252.80;;;;;;5014055;28;19913;-78
2023/01/22 03:22:08;;;;;;;;;;;179.90;2252.80;;;;;;5011394;28;19979;-79
2023/01/22 03:24:33;;;;;;;;;;;179.90;2252.80;;;;;;4994057;28;19997;-78
2023/01/22 03:26:59;;;;;;;;;;;179.90;2252.80;;;;;;5013616;28;20009;-78
2023/01/22 03:29:25;;;;;;;;;;;179.90;2252.80;;;;;;4988382;28;19912;-79
2023/01/22 03:31:50;;;;;;;;;;;179.90;2252.80;;;;;;4996398;28;19914;-79
2023/01/22 03:34:17;;;;;;;;;;;179.90;2252.80;;;;;;4996543;28;19905;-80
2023/01/22 03:36:43;;;;;;;;;;;179.90;2252.80;;;;;;4996205;28;19952;-78
2023/01/22 03:39:09;;;;;;;;;;;180.00;2252.80;;;;;;4988307;28;19915;-79
2023/01/22 03:41:35;;;;;;;;;;;179.90;2252.80;;;;;;5014076;28;19906;-79
2023/01/22 03:44:02;;;;;;;;;;;179.90;2252.80;;;;;;4996267;28;19971;-79
2023/01/22 03:46:28;;;;;;;;;;;179.90;2252.80;;;;;;4988231;28;19914;-79
2023/01/22 03:48:53;;;;;;;;;;;179.90;2252.80;;;;;;4996113;28;19968;-79
2023/01/22 03:51:19;;;;;;;;;;;179.90;2252.80;;;;;;4995744;28;19952;-79
2023/01/22 03:53:45;;;;;;;;;;;179.90;2252.80;;;;;;4994956;28;20338;-79
2023/01/22 03:56:13;;;;;;;;;;;179.90;2252.80;;;;;;4998942;28;19948;-78
2023/01/22 03:58:39;;;;;;;;;;;179.90;2252.80;;;;;;5005037;28;19917;-79
2023/01/22 04:01:06;;;;;;;;;;;179.90;2252.80;;;;;;5005928;28;19913;-78
2023/01/22 04:03:32;;;;;;;;;;;179.90;2252.80;;;;;;5016717;28;19972;-78
2023/01/22 04:06:00;;;;;;;;;;;179.90;2252.80;;;;;;4999392;28;19952;-79
2023/01/22 04:08:27;;;;;;;;;;;179.70;2252.80;;;;;;4998736;28;20410;-79
2023/01/22 04:10:53;;;;;;;;;;;179.60;2252.80;;;;;;5016684;28;19905;-79
2023/01/22 04:13:19;;;;;;;;;;;179.30;2252.80;;;;;;4999185;28;19906;-80
2023/01/22 04:15:45;;;;;;;;;;;154.40;2252.80;;;;;;5016282;28;20322;-79
2023/01/22 04:18:11;;;;;;;;;;;154.10;2252.80;;;;;;4999295;28;19916;-79
2023/01/22 04:20:37;;;;;;;;;;;153.90;2252.80;;;;;;4998584;28;19913;-80
2023/01/22 04:23:02;;;;;;;;;;;153.70;2252.80;;;;;;4998794;28;19909;-79
2023/01/22 04:25:28;;;;;;;;;;;153.90;2252.80;;;;;;4999119;28;19906;-79
2023/01/22 04:27:53;;;;;;;;;;;153.80;2252.80;;;;;;4998560;28;19913;-79
2023/01/22 04:30:19;;;;;;;;;;;153.60;2252.80;;;;;;4998341;28;19909;-79
2023/01/22 04:32:45;;;;;;;;;;;128.90;2252.80;;;;;;4998871;28;19905;-79
2023/01/22 04:35:10;;;;;;;;;;;153.70;2252.80;;;;;;5015292;28;20371;-79
2023/01/22 04:37:36;;;;;;;;;;;153.70;2252.80;;;;;;4997592;28;19910;-79
2023/01/22 04:40:02;;;;;;;;;;;153.80;2252.80;;;;;;4998777;28;19998;-79
2023/01/22 04:42:28;;;;;;;;;;;153.80;2252.80;;;;;;4998795;28;19929;-79
2023/01/22 04:44:53;;;;;;;;;;;153.70;2252.80;;;;;;5015789;28;19959;-79
2023/01/22 04:47:19;;;;;;;;;;;153.60;2252.80;;;;;;4998192;28;19918;-79
2023/01/22 04:49:45;;;;;;;;;;;128.90;2252.80;;;;;;5015027;28;20347;-79
2023/01/22 04:52:10;;;;;;;;;;;128.80;2252.80;;;;;;5014816;28;19917;-79
2023/01/22 04:54:36;;;;;;;;;;;128.70;2252.80;;;;;;5014489;28;20355;-78
2023/01/22 04:57:01;;;;;;;;;;;128.60;2252.80;;;;;;4997498;28;19928;-78
2023/01/22 04:59:27;;;;;;;;;;;128.70;2252.80;;;;;;4998277;28;19981;-79
2023/01/22 05:01:52;;;;;;;;;;;128.60;2073.60;;;;;;5014587;28;19912;-78
2023/01/22 05:04:20;;;;;;;;;;;128.60;2124.80;;;;;;4998330;28;20326;-79
2023/01/22 05:06:46;;;;;;;;;;;128.60;2124.80;;;;;;4997846;28;19913;-79
2023/01/22 05:09:12;;;;;;;;;;;128.70;2252.80;;;;;;4998379;28;19913;-79
2023/01/22 05:11:37;;;;;;;;;;;128.60;1945.60;;;;;;4998044;28;19905;-79
2023/01/22 05:14:03;;;;;;;;;;;128.50;2227.20;;;;;;5015312;28;20478;-79
2023/01/22 05:16:29;;;;;;;;;;;128.60;2252.80;;;;;;4997594;28;19905;-79
2023/01/22 05:18:54;;;;;;;;;;;128.50;2048.00;;;;;;5015481;28;19910;-80
2023/01/22 05:21:20;;;;;;;;;;;128.60;2252.80;;;;;;5016891;28;19913;-79
2023/01/22 05:23:45;;;;;;;;;;;128.80;2252.80;;;;;;5014221;28;20014;-79
2023/01/22 05:26:11;;;;;;;;;;;128.80;2252.80;;;;;;5016376;28;20011;-79
2023/01/22 05:28:36;;;;;;;;;;;128.90;2252.80;;;;;;5015657;28;19924;-78
2023/01/22 05:31:02;;;;;;;;;;;128.90;2252.80;;;;;;5015827;28;19906;-77
2023/01/22 05:33:28;;;;;;;;;;;128.90;2252.80;;;;;;5033924;28;19913;-78
2023/01/22 05:35:58;;;;;;;;;;;128.90;2252.80;;;;;;5033807;28;19944;-78
2023/01/22 05:38:23;;;;;;;;;;;128.90;2252.80;;;;;;5027085;28;20373;-78
2023/01/22 05:40:49;;;;;;;;;;;128.70;2252.80;;;;;;4999529;28;19909;-79
2023/01/22 05:43:14;;;;;;;;;;;128.80;2252.80;;;;;;5016067;28;19905;-79
2023/01/22 05:45:40;;;;;;;;;;;128.70;2252.80;;;;;;5015797;28;19931;-78
2023/01/22 05:48:05;;;;;;;;;;;128.60;2252.80;;;;;;5033540;28;19913;-78
2023/01/22 05:50:31;;;;;;;;;;;128.70;2252.80;;;;;;5015523;28;19924;-78
2023/01/22 05:52:56;;;;;;;;;;;128.50;2252.80;;;;;;5016044;28;19909;-79
2023/01/22 05:55:23;;;;;;;;;;;128.60;2252.80;;;;;;5015675;28;20437;-78
2023/01/22 05:57:49;;;;;;;;;;;128.70;2252.80;;;;;;5006802;28;19917;-78
2023/01/22 06:00:14;;;;;;;;;;;128.80;2252.80;;;;;;5015938;28;20366;-81
2023/01/22 06:02:40;;;;;;;;;;;128.70;2252.80;;;;;;5033473;28;20363;-78
2023/01/22 06:05:06;;;;;;;;;;;128.70;2252.80;;;;;;5016335;28;19912;-77
2023/01/22 06:07:32;;;;;;;;;;;128.70;2252.80;;;;;;5016040;28;19913;-79
2023/01/22 06:09:57;;;;;;;;;;;128.80;2252.80;;;;;;5033296;28;19911;-79
2023/01/22 06:12:23;;;;;;;;;;;128.90;2252.80;;;;;;5015025;28;19909;-79
2023/01/22 06:14:49;;;;;;;;;;;128.60;2252.80;;;;;;5013066;28;19906;-79
2023/01/22 06:17:15;;;;;;;;;;;128.50;2252.80;;;;;;5015542;28;20271;-79
2023/01/22 06:19:41;;;;;;;;;;;128.40;2252.80;;;;;;5015810;28;19917;-79
2023/01/22 06:22:06;;;;;;;;;;;128.60;2252.80;;;;;;5015688;28;19916;-79
2023/01/22 06:24:32;;;;;;;;;;;128.60;2252.80;;;;;;5033320;28;19905;-79
2023/01/22 06:26:57;;;;;;;;;;;128.80;2252.80;;;;;;5015098;28;20275;-79
2023/01/22 06:29:23;;;;;;;;;;;128.90;2252.80;;;;;;5015846;28;19905;-79
2023/01/22 06:31:49;;;;;;;;;;;128.70;2252.80;;;;;;5015563;28;20291;-79
2023/01/22 06:34:15;;;;;;;;;;;128.70;2252.80;;;;;;5013259;28;20286;-78
2023/01/22 06:36:41;;;;;;;;;;;128.70;2252.80;;;;;;5015719;28;19905;-79
2023/01/22 06:39:06;;;;;;;;;;;128.80;2252.80;;;;;;5004333;28;19988;-79
2023/01/22 06:41:32;;;;;;;;;;;128.90;2252.80;;;;;;5015716;28;19905;-79
2023/01/22 06:43:57;;;;;;;;;;;128.90;2252.80;;;;;;5013499;28;19908;-78
2023/01/22 06:46:23;;;;;;;;;;;128.70;2252.80;;;;;;5014954;28;19905;-78
2023/01/22 06:48:48;;;;;;;;;;;128.90;2252.80;;;;;;5015557;28;19905;-78
2023/01/22 06:51:14;;;;;;;;;;;128.90;2252.80;;;;;;5033147;28;20007;-79
2023/01/22 06:53:40;;;;;;;;;;;128.90;2252.80;;;;;;5015413;28;19916;-78
2023/01/22 06:56:05;;;;;;;;;;;128.90;2252.80;;;;;;5016047;28;19912;-78
2023/01/22 06:58:31;;;;;;;;;;;128.90;2252.80;;;;;;5009914;28;19939;-79
2023/01/22 07:00:59;;;;;;;;;;;153.70;2252.80;;;;;;5028244;28;19925;-79
2023/01/22 07:03:24;;;;;;;;;;;153.80;2252.80;;;;;;5026930;28;19933;-78
2023/01/22 07:05:57;;;;;;;;;;;153.80;2252.80;;;;;;5016189;28;19908;-78
2023/01/22 07:08:22;;;;;;;;;;;153.70;2252.80;;;;;;5015699;28;20286;-79
2023/01/22 07:10:48;;;;;;;;;;;153.70;2252.80;;;;;;5015175;28;19905;-78
2023/01/22 07:13:14;;;;;;;;;;;128.90;2252.80;;;;;;5015235;28;19905;-79
2023/01/22 07:15:40;;;;;;;;;;;128.90;2252.80;;;;;;5015614;28;19915;-79
2023/01/22 07:18:06;;;;;;;;;;;153.60;2252.80;;;;;;5014025;28;20000;-78
2023/01/22 07:20:32;;;;;;;;;;;153.60;2252.80;;;;;;5013559;28;20421;-79
2023/01/22 07:22:58;;;;;;;;;;;153.80;2252.80;;;;;;5015560;28;19909;-78
2023/01/22 07:25:24;;;;;;;;;;;153.70;2252.80;;;;;;5015449;28;19909;-78
2023/01/22 07:27:50;;;;;;;;;;;153.80;2252.80;;;;;;5015463;28;19917;-78
2023/01/22 07:30:15;;;;;;;;;;;153.60;2252.80;;;;;;5019000;28;19912;-79
2023/01/22 07:32:41;;;;;;;;;;;128.90;2252.80;;;;;;5018385;28;20011;-75
2023/01/22 07:35:07;;;;;;;;;;;128.90;2252.80;;;;;;5018890;28;19905;-82
2023/01/22 07:37:32;;;;;;;;;;;153.60;2252.80;;;;;;5014451;28;20274;-83
2023/01/22 07:39:58;;;;;;;;;;;153.60;2252.80;;;;;;5019731;28;20273;-79
2023/01/22 07:42:23;;;;;;;;;;;153.70;2252.80;;;;;;5021969;28;19905;-79
2023/01/22 07:44:49;;;;;;;;;;;128.90;2252.80;;;;;;5018437;28;19905;-78
2023/01/22 07:47:14;;;;;;;;;;;153.60;2252.80;;;;;;5018755;28;20008;-79
2023/01/22 07:49:40;;;;;;;;;;;153.60;2252.80;;;;;;5019143;28;19909;-79
2023/01/22 07:52:06;;;;;;;;;;;153.70;2252.80;;;;;;5018665;28;20321;-82
2023/01/22 07:54:35;;;;;;;;;;;153.90;2252.80;;;;;;5038415;28;19912;-81
2023/01/22 07:57:01;;;;;;;;;;;153.90;2252.80;;;;;;5016687;28;19947;-80
2023/01/22 07:59:26;;;;;;;;;;;153.70;2252.80;;;;;;5019493;28;19939;-80
2023/01/22 08:01:53;;;;;;;;;;;153.60;2252.80;;;;;;5035593;28;19905;-90
2023/01/22 08:04:18;;;;;;;;;;;153.60;2252.80;;;;;;5015790;28;19934;-88
2023/01/22 08:06:44;;;;;;;;;;;128.90;2252.80;;;;;;5013988;28;19971;-80
2023/01/22 08:09:09;;;;;;;;;;;128.90;2252.80;;;;;;5025106;28;19909;-82
2023/01/22 08:11:35;;;;;;;;;;;128.90;2252.80;;;;;;5019008;28;20379;-79
2023/01/22 08:14:01;;;;;;;;;;;153.60;2252.80;;;;;;5020121;28;19927;-86
2023/01/22 08:16:26;;;;;;;;;;;153.60;2252.80;;;;;;5017887;28;19998;-82
2023/01/22 08:18:52;;;;;;;;;;;153.60;2252.80;;;;;;5020444;28;19904;-80
2023/01/22 08:21:18;;;;;;;;;;;153.80;2252.80;;;;;;5035886;28;19905;-81
2023/01/22 08:23:43;;;;;;;;;;;153.80;2252.80;;;;;;5039838;28;19920;-79
2023/01/22 08:26:09;;;;;;;;;;;153.60;2252.80;;;;;;5015141;28;19905;-80
2023/01/22 08:28:35;;;;;;;;;;;128.90;2252.80;;;;;;5023465;28;19912;-84
2023/01/22 08:31:01;;;;;;;;;;;153.80;2252.80;;;;;;5021980;28;19920;-86
2023/01/22 08:33:27;;;;;;;;;;;153.90;2252.80;;;;;;5019658;28;19951;-79
2023/01/22 08:35:53;;;;;;;;;;;153.90;2252.80;;;;;;5014641;28;19912;-79
2023/01/22 08:38:19;;;;;;;;;;;154.00;2252.80;;;;;;5018035;28;19909;-79
2023/01/22 08:40:50;;;;;;;;;;;154.10;2252.80;;;;;;5017408;28;19909;-80
2023/01/22 08:43:16;;;;;;;;;;;154.10;2252.80;;;;;;5018214;28;19909;-78
2023/01/22 08:45:42;;;;;;;;;;;153.90;2252.80;;;;;;5018974;28;19966;-78
2023/01/22 08:48:07;;;;;;;;;;;154.10;2252.80;;;;;;5018833;28;19920;-79
2023/01/22 08:50:33;;;;;;;;;;;154.10;2252.80;;;;;;5018787;28;19905;-80
2023/01/22 08:52:58;;;;;;;;;;;154.10;2252.80;;;;;;5018224;28;19920;-79
2023/01/22 08:55:26;;;;;;;;;;;154.10;2252.80;;;;;;5018119;28;19905;-79
2023/01/22 08:57:53;;;;;;;;;;;154.10;2252.80;;;;;;5024612;28;19916;-79
2023/01/22 09:00:18;;;;;;;;;;;154.30;2252.80;;;;;;5038150;28;20270;-83
2023/01/22 09:02:44;;;;;;;;;;;154.40;2252.80;;;;;;5035947;28;19908;-77
2023/01/22 09:05:10;;;;;;;;;;;154.50;2252.80;;;;;;5039358;28;19909;-79
2023/01/22 09:07:35;;;;;;;;;;;154.30;2252.80;;;;;;5037108;28;19923;-79
2023/01/22 09:10:01;;;;;;;;;;;154.40;2252.80;;;;;;5036814;28;20373;-79
2023/01/22 09:12:26;;;;;;;;;;;154.50;2252.80;;;;;;5037664;28;19909;-79
2023/01/22 09:14:52;;;;;;;;;;;154.40;2252.80;;;;;;5037279;28;19904;-79
2023/01/22 09:17:17;;;;;;;;;;;154.40;2252.80;;;;;;5037255;28;19948;-79
2023/01/22 09:19:43;;;;;;;;;;;154.50;2252.80;;;;;;5036957;28;19935;-79
2023/01/22 09:22:08;;;;;;;;;;;179.20;2252.80;;;;;;5037239;28;20366;-80
2023/01/22 09:24:34;;;;;;;;;;;154.50;2252.80;;;;;;5037049;28;19912;-80
2023/01/22 09:27:00;;;;;;;;;;;154.40;2252.80;;;;;;5036074;28;19916;-79
2023/01/22 09:29:25;;;;;;;;;;;154.40;2252.80;;;;;;5036761;28;19950;-77
2023/01/22 09:31:51;;;;;;;;;;;154.50;2252.80;;;;;;5036865;28;20350;-80
2023/01/22 09:34:16;;;;;;;;;;;154.30;2252.80;;;;;;5031510;28;20251;-81
2023/01/22 09:36:42;;;;;;;;;;;154.20;2252.80;;;;;;5036414;28;19928;-79
2023/01/22 09:39:08;;;;;;;;;;;154.10;2252.80;;;;;;5037219;28;20369;-80
2023/01/22 09:41:36;;;;;;;;;;;154.30;2252.80;;;;;;5035981;28;19912;-79
2023/01/22 09:44:20;;;;;;;;;;;154.50;2252.80;;;;;;5036541;28;19905;-81
2023/01/22 09:46:52;;;;;;;;;;;154.50;2252.80;;;;;;5029393;28;19952;-80
2023/01/22 09:49:19;;;;;;;;;;;179.20;2252.80;;;;;;5028561;28;19904;-79
2023/01/22 09:52:03;;;;;;;;;;;179.20;2252.80;;;;;;5034236;28;20370;-84
2023/01/22 09:54:29;;;;;;;;;;;179.30;2252.80;;;;;;5022408;28;19916;-79
2023/01/22 09:56:56;;;;;;;;;;;154.50;2252.80;;;;;;5034557;28;20375;-79
2023/01/22 09:59:25;;;;;;;;;;;179.20;2252.80;;;;;;5025133;28;19917;-79
2023/01/22 10:01:53;;;;;;;;;;;179.30;2252.80;;;;;;5031756;28;19904;-78
2023/01/22 10:04:24;;;;;;;;;;;179.30;2252.80;;;;;;5053662;28;19923;-77
2023/01/22 10:06:51;;;;;;;;;;;179.30;2252.80;;;;;;5053629;28;20385;-78
2023/01/22 10:09:19;;;;;;;;;;;179.30;2252.80;;;;;;5053706;28;19995;-79
2023/01/22 10:11:48;;;;;;;;;;;179.30;2252.80;;;;;;5035806;28;19909;-78
2023/01/22 10:14:15;;;;;;;;;;;179.30;2252.80;;;;;;5031234;28;19911;-79
2023/01/22 10:16:41;;;;;;;;;;;179.30;2252.80;;;;;;5035043;28;19991;-77
2023/01/22 10:19:25;;;;;;;;;;;179.30;2252.80;;;;;;5035361;28;20389;-77
2023/01/22 10:21:56;;;;;;;;;;;179.30;2252.80;;;;;;5033032;28;19921;-80
2023/01/22 10:24:21;;;;;;;;;;;179.30;2252.80;;;;;;5034085;28;19904;-78
2023/01/22 10:26:48;;;;;;;;;;;179.30;2252.80;;;;;;5053229;28;19943;-78
2023/01/22 10:29:20;;;;;;;;;;;179.30;2252.80;;;;;;5035856;28;19909;-78
2023/01/22 10:31:47;;;;;;;;;;;179.50;2252.80;;;;;;5035918;28;19905;-77
2023/01/22 10:34:14;;;;;;;;;;;179.50;2252.80;;;;;;5031152;28;19915;-80
2023/01/22 10:36:46;;;;;;;;;;;179.50;2252.80;;;;;;5035321;28;19916;-79
2023/01/22 10:39:13;;;;;;;;;;;179.40;2252.80;;;;;;5052799;28;20379;-78
2023/01/22 10:41:42;;;;;;;;;;;179.40;2252.80;;;;;;5035008;28;19986;-78
2023/01/22 10:44:08;;;;;;;;;;;179.50;2252.80;;;;;;5035509;28;20278;-76
2023/01/22 10:46:33;;;;;;;;;;;179.50;2252.80;;;;;;5034279;28;19911;-79
2023/01/22 10:49:00;;;;;;;;;;;179.50;2252.80;;;;;;5035477;28;19951;-79
2023/01/22 10:51:31;;;;;;;;;;;179.50;2252.80;;;;;;5033443;28;19970;-89
2023/01/22 10:53:57;;;;;;;;;;;179.40;2252.80;;;;;;5035552;28;19908;-84
2023/01/22 10:56:33;;;;;;;;;;;179.40;2252.80;;;;;;5036049;28;19909;-82
2023/01/22 10:59:01;;;;;;;;;;;179.50;2252.80;;;;;;5032536;28;19921;-79
2023/01/22 11:01:30;;;;;;;;;;;179.50;2252.80;;;;;;5035088;28;19915;-84
2023/01/22 11:03:55;;;;;;;;;;;179.50;2252.80;;;;;;5054724;28;19904;-82
2023/01/22 11:06:24;;;;;;;;;;;179.50;2252.80;;;;;;5039820;28;19911;-80
2023/01/22 11:08:50;;;;;;;;;;;179.50;2252.80;;;;;;5038998;28;19916;-81
2023/01/22 11:11:18;;;;;;;;;;;179.40;2252.80;;;;;;5057522;28;19987;-79
2023/01/22 11:13:52;;;;;;;;;;;179.40;2252.80;;;;;;5057345;28;20354;-84
2023/01/22 11:16:22;;;;;;;;;;;179.40;2252.80;;;;;;5053917;28;19905;-81
2023/01/22 11:18:48;;;;;;;;;;;179.40;2252.80;;;;;;5039202;28;19904;-80
2023/01/22 11:21:19;;;;;;;;;;;179.40;2252.80;;;;;;5030122;28;19915;-79
2023/01/22 11:23:59;;;;;;;;;;;179.50;2252.80;;;;;;5056743;28;19958;-79
2023/01/22 11:26:44;;;;;;;;;;;179.50;2252.80;;;;;;5027616;28;19923;-79
2023/01/22 11:29:09;;;;;;;;;;;179.50;2252.80;;;;;;5056159;28;19913;-80
2023/01/22 11:31:40;;;;;;;;;;;179.60;2252.80;;;;;;5038591;28;19908;-78
2023/01/22 11:34:05;;;;;;;;;;;179.60;2252.80;;;;;;5054660;28;19904;-78
2023/01/22 11:36:33;;;;;;;;;;;179.80;2252.80;;;;;;5038648;28;19912;-79
2023/01/22 11:39:05;;;;;;;;;;;179.90;2252.80;;;;;;5056055;28;19904;-76
2023/01/22 11:41:30;;;;;;;;;;;179.80;2252.80;;;;;;5056115;28;19962;-80
2023/01/22 11:44:15;;;;;;;;;;;179.90;2252.80;;;;;;5039038;28;20393;-79
2023/01/22 11:46:52;;;;;;;;;;;179.90;2252.80;;;;;;5056679;28;19908;-79
2023/01/22 11:49:36;;;;;;;;;;;180.00;2252.80;;;;;;5037130;28;19909;-78
2023/01/22 11:52:21;;;;;;;;;;;180.00;2252.80;;;;;;5028722;28;19916;-79
2023/01/22 11:55:00;;;;;;;;;;;180.10;2252.80;;;;;;5024375;28;19905;-79
2023/01/22 11:57:25;;;;;;;;;;;179.90;2252.80;;;;;;5039560;28;19991;-78
2023/01/22 12:00:11;;;;;;;;;;;179.90;2252.80;;;;;;5033119;28;19963;-78
2023/01/22 12:02:45;;;;;;;;;;;179.90;2252.80;;;;;;5036719;28;19909;-78
2023/01/22 12:05:15;;;;;;;;;;;180.00;2252.80;;;;;;5033945;28;19945;-77
2023/01/22 12:07:48;;;;;;;;;;;180.10;2252.80;;;;;;5032097;28;19917;-76
2023/01/22 12:10:19;;;;;;;;;;;180.10;2252.80;;;;;;5044079;28;19992;-75
2023/01/22 12:12:45;;;;;;;;;;;204.80;2252.80;;;;;;5024082;28;19909;-76
2023/01/22 12:15:13;;;;;;;;;;;204.90;2252.80;;;;;;5026003;28;19909;-76
2023/01/22 12:17:55;;;;;;;;;;;180.10;2252.80;;;;;;5034062;28;19905;-77
2023/01/22 12:20:33;;;;;;;;;;;180.10;2252.80;;;;;;5026808;28;19913;-76
2023/01/22 12:23:05;;;;;;;;;;;180.10;2252.80;;;;;;5037607;28;19948;-78
2023/01/22 12:25:30;;;;;;;;;;;180.10;2252.80;;;;;;5022949;28;19959;-76
2023/01/22 12:28:00;;;;;;;;;;;204.80;2252.80;;;;;;5055092;28;20333;-77
2023/01/22 12:30:26;;;;;;;;;;;204.80;2252.80;;;;;;5036393;28;20309;-77
2023/01/22 12:32:59;;;;;;;;;;;180.00;2252.80;;;;;;5037491;28;19954;-77
2023/01/22 12:35:25;;;;;;;;;;;180.10;2252.80;;;;;;5035690;28;19905;-77
2023/01/22 12:37:54;;;;;;;;;;;180.10;2252.80;;;;;;5055607;28;19909;-80
2023/01/22 12:40:20;;;;;;;;;;;204.80;2252.80;;;;;;5037254;28;19905;-80
2023/01/22 12:42:50;;;;;;;;;;;204.80;2252.80;;;;;;5037607;28;19904;-79
2023/01/22 12:45:19;;;;;;;;;;;204.80;2252.80;;;;;;5055195;28;19998;-79
2023/01/22 12:47:45;;;;;;;;;;;204.80;2252.80;;;;;;5054270;28;20007;-78
2023/01/22 12:50:20;;;;;;;;;;;180.10;2252.80;;;;;;5055157;28;20019;-81
2023/01/22 12:52:58;;;;;;;;;;;180.00;2252.80;;;;;;5032684;28;19909;-79
2023/01/22 12:55:31;;;;;;;;;;;180.10;2252.80;;;;;;5055313;28;19905;-80
2023/01/22 12:57:57;;;;;;;;;;;204.90;2252.80;;;;;;5053276;28;20436;-77
2023/01/22 13:00:30;;;;;;;;;;;204.90;2252.80;;;;;;5036344;28;19905;-76
2023/01/22 13:02:56;;;;;;;;;;;205.00;2252.80;;;;;;5054505;28;19904;-78
2023/01/22 13:05:25;;;;;;;;;;;204.90;2252.80;;;;;;5032454;28;19904;-77
2023/01/22 13:08:02;;;;;;;;;;;204.90;2252.80;;;;;;5036469;28;20011;-78
2023/01/22 13:10:29;;;;;;;;;;;205.00;2252.80;;;;;;5054393;28;19912;-78
2023/01/22 13:12:56;;;;;;;;;;;205.00;2252.80;;;;;;5051653;28;20006;-77
2023/01/22 13:15:26;;;;;;;;;;;204.90;2252.80;;;;;;5029510;28;19905;-77
2023/01/22 13:18:12;;;;;;;;;;;204.90;2252.80;;;;;;5036535;28;20011;-77
2023/01/22 13:20:56;;;;;;;;;;;204.90;2252.80;;;;;;5035216;28;19909;-78
2023/01/22 13:23:22;;;;;;;;;;;204.90;2252.80;;;;;;5021111;28;20367;-78
2023/01/22 13:25:52;;;;;;;;;;;204.90;2252.80;;;;;;5036295;28;19911;-78
2023/01/22 13:28:18;;;;;;;;;;;204.90;2252.80;;;;;;5043060;28;20464;-76
2023/01/22 13:30:54;;;;;;;;;;;204.80;2252.80;;;;;;5036083;28;19991;-77
2023/01/22 13:33:19;;;;;;;;;;;180.00;2252.80;;;;;;5028944;28;19905;-76
2023/01/22 13:35:45;;;;;;;;;;;179.90;2252.80;;;;;;5052622;28;19915;-77
2023/01/22 13:38:27;;;;;;;;;;;180.10;2252.80;;;;;;5035552;28;19919;-76
2023/01/22 13:41:03;;;;;;;;;;;204.80;2252.80;;;;;;5036113;28;19904;-76
2023/01/22 13:43:29;;;;;;;;;;;204.80;2252.80;;;;;;5024670;28;19993;-78
2023/01/22 13:45:57;;;;;;;;;;;204.90;2252.80;;;;;;5026619;28;19908;-77
2023/01/22 13:48:23;;;;;;;;;;;205.00;2252.80;;;;;;5035709;28;19963;-77
2023/01/22 13:50:55;;;;;;;;;;;205.00;2252.80;;;;;;5025162;28;19916;-77